Hauptseite
METAR-TAF:

METAR-TAF

Flughäfen :

Caracas, Venezuela

Flughafen Caracas

Breite: 10-36N, Länge: 066-59W, Höhe: 43 m

Beobachtung

Neuester Wetterbericht von vor 56 Minuten, um 06:00 UTC
Windstille
Temperatur 28°C
Luftfeuchtigkeit 84%
Luftdruck 1009 hPa
Sichtweite 10 km oder mehr
Leicht bewölkt in der Höhe von 1600 ft

METAR: SVMI 240600Z 00000KT 9999 FEW016 28/25 Q1009

Zeit: 02:56 (06:56 UTC)

Prognose

Neuester Wetterbericht von vor 2 Stunden und 56 Minuten, um 04:00 UTC
Gültige Prognose vom 24 um 06 UTC bis 25 um 06 UTC
Wind 5 kt aus Nordost
Sichtweite 10 km oder mehr
Übergehend zu
vom 24 um 06 UTC bis 24 um 10 UTC
Wind 5 kt aus Ost/Nordost
Leicht bewölkt in der Höhe von 1600 ft

TAF: SVMI 240400Z 2406/2506 05005KT 9999 SACT013 TX34/18Z TN25/09Z BECMG 2406/2410 07005KT FEW016

Wetterbeobachtungen und Prognosen von mehr als 4000 Flughäfen (METAR und TAF Bericht).

Die verfügbaren Stationen werden durch gelbe und rote Markierungen auf der Karte dargestellt.

Führen Sie die Maus auf sie, um den Namen der Station zu sehen.

Darauf klicken, um die Beobachtung von Wetterbeobachtungen und Prognosen zu sehen.

Um die Karte zu ändern : klicken Sie auf den grünen Tasten mit einem schwarzen Kreuz Zum Vergrößern, auf den grünen Button mit einem Gedankenstrich zu verkleinern, oder auf die grünen Pfeile für benachbarte Karten.


METAR-TAF: